Ilha Grande, Brazil
Current Conditions -  °F | °C
As of 4:00 AM on Wednesday 22 Oct 2014 (Local Time) from SBSC Reporting Station
Light Rain Light Rain  
Wind Chill: 64°   Ceiling: 3000
Heat Index: 64°   Visibility: 5mi
Dew Point: 64°   Wind: 3mph
Humidity: 100%   Direction: 110°ESE
Pressure: 30.12"   Gusts: NA
Location:  23.15°S, 44.13°W
Report Text: SBSC 220600Z 11003KT 8000 -RA FEW005 SCT020 BKN030 18/18 Q1020
Loading
Personal Weather Stations






























Interactive Weather Map
Tropical Storm Tracking
New forecast layout! Learn more

10-Day Weather Forecast

Advertisements
Track Severe Weather on mobile